首页
METAR-TAF:

METAR-TAF

机场 :

德里, 北爱尔兰

纬度: 55-03N, 经度: 007-09W, 海拔: 9米

当前天气观测

该预报发布于42分钟前的14:20 UTC
风速21节,风向西
温度 9°C
湿度 66%
气压 1016 hPa
能见度10公里或以上
少量云层高于3600英尺
散云层高于4500英尺

METAR: EGAE 231420Z 28021KT 9999 FEW036 SCT045 09/03 Q1016

时间: 15:02 (15:02 UTC)

预报

该预报发布于1小时和1分钟前的14:01 UTC
预报有效从23日的 15点(UTC)到 23日的 22点(UTC)
风速15节,风向西
能见度10公里或以上
少量云层高于3000英尺
短暂存在
从 23日的 15点(UTC)到 23日的 16点(UTC)
风速18节,风向西,有时为28节阵风
几率 30% :
短暂存在
从 23日的 15点(UTC)到 23日的 19点(UTC)
能見度: 8000
阵雨

TAF: EGAE 231401Z 2315/2322 27015KT 9999 FEW030 TEMPO 2315/2316 28018G28KT PROB30 TEMPO 2315/2319 8000 SHRA

超过4000个机场的气象观测和天气预报(METAR&TAF报告)。

可查询的气象台以黄色和红色小点在地图上表示。

将鼠标移到小点上方,可查看气象台名称。

然后点击查看天气观测和预报。

如需切换地图:点击带黑十字的绿色按钮放大地图;点击带横线的绿色按钮缩小地图;或者点击绿色箭头查看邻近地区的地图。


METAR-TAF: